sensor_id;sensor_type;location;lat;lon;timestamp;temperature;humidity
17715;DHT22;8977;50.902;4.314;2023-04-24T00:01:05;13.40;99.90
17715;DHT22;8977;50.902;4.314;2023-04-24T00:03:34;13.40;99.90
17715;DHT22;8977;50.902;4.314;2023-04-24T00:06:01;13.40;99.90
17715;DHT22;8977;50.902;4.314;2023-04-24T00:08:29;13.40;99.90
17715;DHT22;8977;50.902;4.314;2023-04-24T00:10:56;13.30;99.90
17715;DHT22;8977;50.902;4.314;2023-04-24T00:13:23;13.30;99.90
17715;DHT22;8977;50.902;4.314;2023-04-24T00:15:50;13.40;99.90
17715;DHT22;8977;50.902;4.314;2023-04-24T00:18:17;13.30;99.90
17715;DHT22;8977;50.902;4.314;2023-04-24T00:20:46;13.30;99.90
17715;DHT22;8977;50.902;4.314;2023-04-24T00:23:13;13.20;99.90
17715;DHT22;8977;50.902;4.314;2023-04-24T00:25:40;13.20;99.90
17715;DHT22;8977;50.902;4.314;2023-04-24T00:28:07;13.40;99.90
17715;DHT22;8977;50.902;4.314;2023-04-24T00:30:34;13.30;99.90
17715;DHT22;8977;50.902;4.314;2023-04-24T00:33:01;13.50;99.90
17715;DHT22;8977;50.902;4.314;2023-04-24T00:35:28;13.30;99.90
17715;DHT22;8977;50.902;4.314;2023-04-24T00:37:56;13.30;99.90
17715;DHT22;8977;50.902;4.314;2023-04-24T00:40:23;13.30;99.90
17715;DHT22;8977;50.902;4.314;2023-04-24T00:42:50;13.30;99.90
17715;DHT22;8977;50.902;4.314;2023-04-24T00:45:18;13.30;99.90
17715;DHT22;8977;50.902;4.314;2023-04-24T00:47:46;13.30;99.90
17715;DHT22;8977;50.902;4.314;2023-04-24T00:50:15;13.20;99.90
17715;DHT22;8977;50.902;4.314;2023-04-24T00:52:42;13.20;99.90
17715;DHT22;8977;50.902;4.314;2023-04-24T00:55:11;13.20;99.90
17715;DHT22;8977;50.902;4.314;2023-04-24T00:57:38;13.20;99.90
17715;DHT22;8977;50.902;4.314;2023-04-24T01:00:06;13.20;99.90
17715;DHT22;8977;50.902;4.314;2023-04-24T01:02:39;13.30;99.90
17715;DHT22;8977;50.902;4.314;2023-04-24T01:05:09;13.30;99.90
17715;DHT22;8977;50.902;4.314;2023-04-24T01:07:37;13.30;99.90
17715;DHT22;8977;50.902;4.314;2023-04-24T01:10:06;13.30;99.90
17715;DHT22;8977;50.902;4.314;2023-04-24T01:12:35;13.30;99.90
17715;DHT22;8977;50.902;4.314;2023-04-24T01:15:02;13.30;99.90
17715;DHT22;8977;50.902;4.314;2023-04-24T01:17:30;13.40;99.90
17715;DHT22;8977;50.902;4.314;2023-04-24T01:19:58;13.30;99.90
17715;DHT22;8977;50.902;4.314;2023-04-24T01:22:27;13.30;99.90
17715;DHT22;8977;50.902;4.314;2023-04-24T01:24:54;13.30;99.90
17715;DHT22;8977;50.902;4.314;2023-04-24T01:27:21;13.30;99.90
17715;DHT22;8977;50.902;4.314;2023-04-24T01:29:48;13.30;99.90
17715;DHT22;8977;50.902;4.314;2023-04-24T01:32:17;13.30;99.90
17715;DHT22;8977;50.902;4.314;2023-04-24T01:34:45;13.30;99.90
17715;DHT22;8977;50.902;4.314;2023-04-24T01:37:12;13.40;99.90
17715;DHT22;8977;50.902;4.314;2023-04-24T01:39:41;13.30;99.90
17715;DHT22;8977;50.902;4.314;2023-04-24T01:42:08;13.30;99.90
17715;DHT22;8977;50.902;4.314;2023-04-24T01:44:35;13.20;99.90
17715;DHT22;8977;50.902;4.314;2023-04-24T01:47:02;13.10;99.90
17715;DHT22;8977;50.902;4.314;2023-04-24T01:49:29;13.10;99.90
17715;DHT22;8977;50.902;4.314;2023-04-24T01:51:56;13.10;99.90
17715;DHT22;8977;50.902;4.314;2023-04-24T01:54:23;13.20;99.90
17715;DHT22;8977;50.902;4.314;2023-04-24T01:56:51;13.30;99.90
17715;DHT22;8977;50.902;4.314;2023-04-24T01:59:20;13.40;99.90
17715;DHT22;8977;50.902;4.314;2023-04-24T02:01:48;13.30;99.90
17715;DHT22;8977;50.902;4.314;2023-04-24T02:04:15;13.20;99.90
17715;DHT22;8977;50.902;4.314;2023-04-24T02:06:42;13.10;99.90
17715;DHT22;8977;50.902;4.314;2023-04-24T02:09:09;13.10;99.90
17715;DHT22;8977;50.902;4.314;2023-04-24T02:11:36;13.20;99.90
17715;DHT22;8977;50.902;4.314;2023-04-24T02:14:04;13.20;99.90
17715;DHT22;8977;50.902;4.314;2023-04-24T02:16:31;13.10;99.90
17715;DHT22;8977;50.902;4.314;2023-04-24T02:18:59;13.10;99.90
17715;DHT22;8977;50.902;4.314;2023-04-24T02:21:26;13.20;99.90
17715;DHT22;8977;50.902;4.314;2023-04-24T02:23:54;13.20;99.90
17715;DHT22;8977;50.902;4.314;2023-04-24T02:26:21;13.10;99.90
17715;DHT22;8977;50.902;4.314;2023-04-24T02:28:48;13.20;99.90
17715;DHT22;8977;50.902;4.314;2023-04-24T02:31:16;13.10;99.90
17715;DHT22;8977;50.902;4.314;2023-04-24T02:33:43;13.10;99.90
17715;DHT22;8977;50.902;4.314;2023-04-24T02:36:10;13.10;99.90
17715;DHT22;8977;50.902;4.314;2023-04-24T02:38:37;13.10;99.90
17715;DHT22;8977;50.902;4.314;2023-04-24T02:41:04;13.30;99.90
17715;DHT22;8977;50.902;4.314;2023-04-24T02:43:31;13.30;99.90
17715;DHT22;8977;50.902;4.314;2023-04-24T02:45:59;13.20;99.90
17715;DHT22;8977;50.902;4.314;2023-04-24T02:48:28;13.10;99.90
17715;DHT22;8977;50.902;4.314;2023-04-24T02:50:55;13.00;99.90
17715;DHT22;8977;50.902;4.314;2023-04-24T02:53:23;13.10;99.90
17715;DHT22;8977;50.902;4.314;2023-04-24T02:55:50;13.10;99.90
17715;DHT22;8977;50.902;4.314;2023-04-24T02:58:17;13.00;99.90
17715;DHT22;8977;50.902;4.314;2023-04-24T03:00:45;13.10;99.90
17715;DHT22;8977;50.902;4.314;2023-04-24T03:03:12;13.00;99.90
17715;DHT22;8977;50.902;4.314;2023-04-24T03:05:40;13.10;99.90
17715;DHT22;8977;50.902;4.314;2023-04-24T03:08:07;13.10;99.90
17715;DHT22;8977;50.902;4.314;2023-04-24T03:10:34;13.00;99.90
17715;DHT22;8977;50.902;4.314;2023-04-24T03:13:01;13.00;99.90
17715;DHT22;8977;50.902;4.314;2023-04-24T03:15:28;13.00;99.90
17715;DHT22;8977;50.902;4.314;2023-04-24T03:17:55;13.00;99.90
17715;DHT22;8977;50.902;4.314;2023-04-24T03:20:23;13.10;99.90
17715;DHT22;8977;50.902;4.314;2023-04-24T03:22:51;13.00;99.90
17715;DHT22;8977;50.902;4.314;2023-04-24T03:25:18;13.00;99.90
17715;DHT22;8977;50.902;4.314;2023-04-24T03:27:46;13.00;99.90
17715;DHT22;8977;50.902;4.314;2023-04-24T03:30:13;13.10;99.90
17715;DHT22;8977;50.902;4.314;2023-04-24T03:32:40;13.00;99.90
17715;DHT22;8977;50.902;4.314;2023-04-24T03:35:07;12.90;99.90
17715;DHT22;8977;50.902;4.314;2023-04-24T03:37:36;12.90;99.90
17715;DHT22;8977;50.902;4.314;2023-04-24T03:40:05;12.70;99.90
17715;DHT22;8977;50.902;4.314;2023-04-24T03:42:32;12.80;99.90
17715;DHT22;8977;50.902;4.314;2023-04-24T03:44:59;12.80;99.90
17715;DHT22;8977;50.902;4.314;2023-04-24T03:47:26;12.90;99.90
17715;DHT22;8977;50.902;4.314;2023-04-24T03:49:53;12.80;99.90
17715;DHT22;8977;50.902;4.314;2023-04-24T03:52:21;12.90;99.90
17715;DHT22;8977;50.902;4.314;2023-04-24T03:54:48;12.80;99.90
17715;DHT22;8977;50.902;4.314;2023-04-24T03:57:16;12.80;99.90
17715;DHT22;8977;50.902;4.314;2023-04-24T03:59:43;12.90;99.90
17715;DHT22;8977;50.902;4.314;2023-04-24T04:02:10;13.00;99.90
17715;DHT22;8977;50.902;4.314;2023-04-24T04:04:37;12.90;99.90
17715;DHT22;8977;50.902;4.314;2023-04-24T04:07:04;12.90;99.90
17715;DHT22;8977;50.902;4.314;2023-04-24T04:09:31;12.90;99.90
17715;DHT22;8977;50.902;4.314;2023-04-24T04:11:59;13.00;99.90
17715;DHT22;8977;50.902;4.314;2023-04-24T04:14:27;12.90;99.90
17715;DHT22;8977;50.902;4.314;2023-04-24T04:16:55;12.90;99.90
17715;DHT22;8977;50.902;4.314;2023-04-24T04:19:22;12.80;99.90
17715;DHT22;8977;50.902;4.314;2023-04-24T04:21:49;12.90;99.90
17715;DHT22;8977;50.902;4.314;2023-04-24T04:24:18;12.80;99.90
17715;DHT22;8977;50.902;4.314;2023-04-24T04:26:46;12.90;99.90
17715;DHT22;8977;50.902;4.314;2023-04-24T04:29:16;12.90;99.90
17715;DHT22;8977;50.902;4.314;2023-04-24T04:31:45;12.90;99.90
17715;DHT22;8977;50.902;4.314;2023-04-24T04:34:12;12.80;99.90
17715;DHT22;8977;50.902;4.314;2023-04-24T04:36:40;12.90;99.90
17715;DHT22;8977;50.902;4.314;2023-04-24T04:39:07;12.90;99.90
17715;DHT22;8977;50.902;4.314;2023-04-24T04:41:34;13.00;99.90
17715;DHT22;8977;50.902;4.314;2023-04-24T04:44:01;13.00;99.90
17715;DHT22;8977;50.902;4.314;2023-04-24T04:46:30;12.90;99.90
17715;DHT22;8977;50.902;4.314;2023-04-24T04:49:01;12.80;99.90
17715;DHT22;8977;50.902;4.314;2023-04-24T04:51:28;12.90;99.90
17715;DHT22;8977;50.902;4.314;2023-04-24T04:53:55;12.70;99.90
17715;DHT22;8977;50.902;4.314;2023-04-24T04:56:22;12.70;99.90
17715;DHT22;8977;50.902;4.314;2023-04-24T04:58:49;12.70;99.90
17715;DHT22;8977;50.902;4.314;2023-04-24T05:01:16;12.70;99.90
17715;DHT22;8977;50.902;4.314;2023-04-24T05:03:43;12.60;99.90
17715;DHT22;8977;50.902;4.314;2023-04-24T05:06:11;12.60;99.90
17715;DHT22;8977;50.902;4.314;2023-04-24T05:08:38;12.70;99.90
17715;DHT22;8977;50.902;4.314;2023-04-24T05:11:05;12.70;99.90
17715;DHT22;8977;50.902;4.314;2023-04-24T05:13:32;12.70;99.90
17715;DHT22;8977;50.902;4.314;2023-04-24T05:15:59;12.70;99.90
17715;DHT22;8977;50.902;4.314;2023-04-24T05:18:26;12.80;99.90
17715;DHT22;8977;50.902;4.314;2023-04-24T05:20:53;12.60;99.90
17715;DHT22;8977;50.902;4.314;2023-04-24T05:23:21;12.70;99.90
17715;DHT22;8977;50.902;4.314;2023-04-24T05:25:48;12.70;99.90
17715;DHT22;8977;50.902;4.314;2023-04-24T05:28:15;12.60;99.90
17715;DHT22;8977;50.902;4.314;2023-04-24T05:30:42;12.70;99.90
17715;DHT22;8977;50.902;4.314;2023-04-24T05:33:09;12.60;99.90
17715;DHT22;8977;50.902;4.314;2023-04-24T05:35:36;12.60;99.90
17715;DHT22;8977;50.902;4.314;2023-04-24T05:38:03;12.60;99.90
17715;DHT22;8977;50.902;4.314;2023-04-24T05:40:31;12.70;99.90
17715;DHT22;8977;50.902;4.314;2023-04-24T05:42:58;12.60;99.90
17715;DHT22;8977;50.902;4.314;2023-04-24T05:45:25;12.60;99.90
17715;DHT22;8977;50.902;4.314;2023-04-24T05:47:52;12.60;99.90
17715;DHT22;8977;50.902;4.314;2023-04-24T05:50:19;12.70;99.90
17715;DHT22;8977;50.902;4.314;2023-04-24T05:52:46;12.50;99.90
17715;DHT22;8977;50.902;4.314;2023-04-24T05:55:13;12.50;99.90
17715;DHT22;8977;50.902;4.314;2023-04-24T05:57:44;12.50;99.90
17715;DHT22;8977;50.902;4.314;2023-04-24T06:00:12;12.50;99.90
17715;DHT22;8977;50.902;4.314;2023-04-24T06:02:39;12.60;99.90
17715;DHT22;8977;50.902;4.314;2023-04-24T06:05:07;12.60;99.90
17715;DHT22;8977;50.902;4.314;2023-04-24T06:07:35;12.60;99.90
17715;DHT22;8977;50.902;4.314;2023-04-24T06:10:02;12.70;99.90
17715;DHT22;8977;50.902;4.314;2023-04-24T06:12:29;12.70;99.90
17715;DHT22;8977;50.902;4.314;2023-04-24T06:14:57;12.70;99.90
17715;DHT22;8977;50.902;4.314;2023-04-24T06:17:24;12.50;99.90
17715;DHT22;8977;50.902;4.314;2023-04-24T06:19:51;12.60;99.90
17715;DHT22;8977;50.902;4.314;2023-04-24T06:22:18;12.50;99.90
17715;DHT22;8977;50.902;4.314;2023-04-24T06:24:44;12.50;99.90
17715;DHT22;8977;50.902;4.314;2023-04-24T06:27:12;12.50;99.90
17715;DHT22;8977;50.902;4.314;2023-04-24T06:29:39;12.50;99.90
17715;DHT22;8977;50.902;4.314;2023-04-24T06:32:07;12.50;99.90
17715;DHT22;8977;50.902;4.314;2023-04-24T06:34:34;12.60;99.90
17715;DHT22;8977;50.902;4.314;2023-04-24T06:37:02;12.60;99.90
17715;DHT22;8977;50.902;4.314;2023-04-24T06:39:29;12.50;99.90
17715;DHT22;8977;50.902;4.314;2023-04-24T06:41:56;12.60;99.90
17715;DHT22;8977;50.902;4.314;2023-04-24T06:44:22;12.60;99.90
17715;DHT22;8977;50.902;4.314;2023-04-24T06:46:49;12.60;99.90
17715;DHT22;8977;50.902;4.314;2023-04-24T06:49:18;12.60;99.90
17715;DHT22;8977;50.902;4.314;2023-04-24T06:51:45;12.60;99.90
17715;DHT22;8977;50.902;4.314;2023-04-24T06:54:12;12.60;99.90
17715;DHT22;8977;50.902;4.314;2023-04-24T06:56:39;12.60;99.90
17715;DHT22;8977;50.902;4.314;2023-04-24T06:59:06;12.60;99.90
17715;DHT22;8977;50.902;4.314;2023-04-24T07:01:33;12.70;99.90
17715;DHT22;8977;50.902;4.314;2023-04-24T07:04:00;12.60;99.90
17715;DHT22;8977;50.902;4.314;2023-04-24T07:06:28;12.70;99.90
17715;DHT22;8977;50.902;4.314;2023-04-24T07:08:56;12.80;99.90
17715;DHT22;8977;50.902;4.314;2023-04-24T07:11:23;12.70;99.90
17715;DHT22;8977;50.902;4.314;2023-04-24T07:13:50;12.70;99.90
17715;DHT22;8977;50.902;4.314;2023-04-24T07:16:17;12.60;99.90
17715;DHT22;8977;50.902;4.314;2023-04-24T07:18:44;12.70;99.90
17715;DHT22;8977;50.902;4.314;2023-04-24T07:21:10;12.70;99.90
17715;DHT22;8977;50.902;4.314;2023-04-24T07:23:39;12.70;99.90
17715;DHT22;8977;50.902;4.314;2023-04-24T07:26:06;12.70;99.90
17715;DHT22;8977;50.902;4.314;2023-04-24T07:28:33;12.70;99.90
17715;DHT22;8977;50.902;4.314;2023-04-24T07:31:00;12.70;99.90
17715;DHT22;8977;50.902;4.314;2023-04-24T07:33:27;12.70;99.90
17715;DHT22;8977;50.902;4.314;2023-04-24T07:35:54;12.70;99.90
17715;DHT22;8977;50.902;4.314;2023-04-24T07:38:21;12.70;99.90
17715;DHT22;8977;50.902;4.314;2023-04-24T07:40:52;12.70;99.90
17715;DHT22;8977;50.902;4.314;2023-04-24T07:43:20;12.80;99.90
17715;DHT22;8977;50.902;4.314;2023-04-24T07:45:47;12.80;99.90
17715;DHT22;8977;50.902;4.314;2023-04-24T07:48:14;12.70;99.90
17715;DHT22;8977;50.902;4.314;2023-04-24T07:50:41;12.80;99.90
17715;DHT22;8977;50.902;4.314;2023-04-24T07:53:08;12.90;99.90
17715;DHT22;8977;50.902;4.314;2023-04-24T07:55:35;12.80;99.90
17715;DHT22;8977;50.902;4.314;2023-04-24T07:58:04;12.90;99.90
17715;DHT22;8977;50.902;4.314;2023-04-24T08:00:31;12.90;99.90
17715;DHT22;8977;50.902;4.314;2023-04-24T08:02:58;12.90;99.90
17715;DHT22;8977;50.902;4.314;2023-04-24T08:05:25;13.00;99.90
17715;DHT22;8977;50.902;4.314;2023-04-24T08:07:54;13.00;99.90
17715;DHT22;8977;50.902;4.314;2023-04-24T08:10:21;13.00;99.90
17715;DHT22;8977;50.902;4.314;2023-04-24T08:12:48;13.10;99.90
17715;DHT22;8977;50.902;4.314;2023-04-24T08:15:17;13.10;99.90
17715;DHT22;8977;50.902;4.314;2023-04-24T08:17:44;13.10;99.90
17715;DHT22;8977;50.902;4.314;2023-04-24T08:20:11;13.00;99.90
17715;DHT22;8977;50.902;4.314;2023-04-24T08:22:40;13.10;99.90
17715;DHT22;8977;50.902;4.314;2023-04-24T08:25:07;13.00;99.90
17715;DHT22;8977;50.902;4.314;2023-04-24T08:27:34;13.20;99.90
17715;DHT22;8977;50.902;4.314;2023-04-24T08:30:02;13.10;99.90
17715;DHT22;8977;50.902;4.314;2023-04-24T08:32:30;13.10;99.90
17715;DHT22;8977;50.902;4.314;2023-04-24T08:34:58;13.20;99.90
17715;DHT22;8977;50.902;4.314;2023-04-24T08:37:26;13.20;99.90
17715;DHT22;8977;50.902;4.314;2023-04-24T08:39:53;13.30;99.90
17715;DHT22;8977;50.902;4.314;2023-04-24T08:42:20;13.10;99.90
17715;DHT22;8977;50.902;4.314;2023-04-24T08:44:49;13.10;99.90
17715;DHT22;8977;50.902;4.314;2023-04-24T08:47:16;13.10;99.90
17715;DHT22;8977;50.902;4.314;2023-04-24T08:49:48;13.00;99.90
17715;DHT22;8977;50.902;4.314;2023-04-24T08:52:16;13.10;99.90
17715;DHT22;8977;50.902;4.314;2023-04-24T08:54:46;13.10;99.90
17715;DHT22;8977;50.902;4.314;2023-04-24T08:57:14;13.20;99.90
17715;DHT22;8977;50.902;4.314;2023-04-24T08:59:42;13.30;99.90
17715;DHT22;8977;50.902;4.314;2023-04-24T09:02:10;13.20;99.90
17715;DHT22;8977;50.902;4.314;2023-04-24T09:04:37;13.30;99.90
17715;DHT22;8977;50.902;4.314;2023-04-24T09:07:07;13.40;99.90
17715;DHT22;8977;50.902;4.314;2023-04-24T09:09:34;13.30;99.90
17715;DHT22;8977;50.902;4.314;2023-04-24T09:12:02;13.40;99.90
17715;DHT22;8977;50.902;4.314;2023-04-24T09:14:30;13.40;99.90
17715;DHT22;8977;50.902;4.314;2023-04-24T09:16:58;13.50;99.90
17715;DHT22;8977;50.902;4.314;2023-04-24T09:19:25;13.40;99.90
17715;DHT22;8977;50.902;4.314;2023-04-24T09:21:52;13.50;99.90
17715;DHT22;8977;50.902;4.314;2023-04-24T09:24:22;13.50;99.90
17715;DHT22;8977;50.902;4.314;2023-04-24T09:26:55;13.40;99.90
17715;DHT22;8977;50.902;4.314;2023-04-24T09:29:24;13.50;99.90
17715;DHT22;8977;50.902;4.314;2023-04-24T09:31:50;13.60;99.90
17715;DHT22;8977;50.902;4.314;2023-04-24T09:34:22;13.60;99.90
17715;DHT22;8977;50.902;4.314;2023-04-24T09:36:49;13.40;99.90
17715;DHT22;8977;50.902;4.314;2023-04-24T09:39:17;13.30;99.90
17715;DHT22;8977;50.902;4.314;2023-04-24T09:41:48;13.50;99.90
17715;DHT22;8977;50.902;4.314;2023-04-24T09:44:16;13.60;99.90
17715;DHT22;8977;50.902;4.314;2023-04-24T09:46:45;13.60;99.90
17715;DHT22;8977;50.902;4.314;2023-04-24T09:49:16;13.60;99.90
17715;DHT22;8977;50.902;4.314;2023-04-24T09:51:43;13.60;99.90
17715;DHT22;8977;50.902;4.314;2023-04-24T09:54:15;13.70;99.90
17715;DHT22;8977;50.902;4.314;2023-04-24T09:56:43;13.70;99.90
17715;DHT22;8977;50.902;4.314;2023-04-24T09:59:13;13.60;99.90
17715;DHT22;8977;50.902;4.314;2023-04-24T10:01:41;13.60;99.90
17715;DHT22;8977;50.902;4.314;2023-04-24T10:04:17;13.50;99.90
17715;DHT22;8977;50.902;4.314;2023-04-24T10:06:45;13.60;99.90
17715;DHT22;8977;50.902;4.314;2023-04-24T10:09:12;13.60;99.90
17715;DHT22;8977;50.902;4.314;2023-04-24T10:11:42;13.50;99.90
17715;DHT22;8977;50.902;4.314;2023-04-24T10:14:14;13.60;99.90
17715;DHT22;8977;50.902;4.314;2023-04-24T10:16:42;13.60;99.90
17715;DHT22;8977;50.902;4.314;2023-04-24T10:19:10;13.60;99.90
17715;DHT22;8977;50.902;4.314;2023-04-24T10:21:40;13.70;99.90
17715;DHT22;8977;50.902;4.314;2023-04-24T10:24:12;13.70;99.90
17715;DHT22;8977;50.902;4.314;2023-04-24T10:26:40;13.60;99.90
17715;DHT22;8977;50.902;4.314;2023-04-24T10:29:08;13.70;99.90
17715;DHT22;8977;50.902;4.314;2023-04-24T10:31:39;13.80;99.90
17715;DHT22;8977;50.902;4.314;2023-04-24T10:34:07;13.80;99.90
17715;DHT22;8977;50.902;4.314;2023-04-24T10:36:36;13.80;99.90
17715;DHT22;8977;50.902;4.314;2023-04-24T10:39:08;13.70;99.90
17715;DHT22;8977;50.902;4.314;2023-04-24T10:41:37;13.70;99.90
17715;DHT22;8977;50.902;4.314;2023-04-24T10:44:05;13.80;99.90
17715;DHT22;8977;50.902;4.314;2023-04-24T10:46:32;13.80;99.90
17715;DHT22;8977;50.902;4.314;2023-04-24T10:49:03;13.90;99.90
17715;DHT22;8977;50.902;4.314;2023-04-24T10:51:48;13.80;99.90
17715;DHT22;8977;50.902;4.314;2023-04-24T10:54:23;14.00;99.90
17715;DHT22;8977;50.902;4.314;2023-04-24T10:56:50;14.00;99.90
17715;DHT22;8977;50.902;4.314;2023-04-24T10:59:24;14.00;99.90
17715;DHT22;8977;50.902;4.314;2023-04-24T11:01:53;14.00;99.90
17715;DHT22;8977;50.902;4.314;2023-04-24T11:04:31;13.90;99.90
17715;DHT22;8977;50.902;4.314;2023-04-24T11:06:58;13.90;99.90
17715;DHT22;8977;50.902;4.314;2023-04-24T11:09:27;13.90;99.90
17715;DHT22;8977;50.902;4.314;2023-04-24T11:12:03;13.80;99.90
17715;DHT22;8977;50.902;4.314;2023-04-24T11:14:59;13.80;99.90
17715;DHT22;8977;50.902;4.314;2023-04-24T11:17:30;13.80;99.90
17715;DHT22;8977;50.902;4.314;2023-04-24T11:20:03;13.80;99.90
17715;DHT22;8977;50.902;4.314;2023-04-24T11:22:33;14.00;99.90
17715;DHT22;8977;50.902;4.314;2023-04-24T11:25:01;13.90;99.90
17715;DHT22;8977;50.902;4.314;2023-04-24T11:27:31;13.90;99.90
17715;DHT22;8977;50.902;4.314;2023-04-24T11:30:00;13.80;99.90
17715;DHT22;8977;50.902;4.314;2023-04-24T11:32:29;13.80;99.90
17715;DHT22;8977;50.902;4.314;2023-04-24T11:34:58;13.90;99.90
17715;DHT22;8977;50.902;4.314;2023-04-24T11:37:34;13.90;99.90
17715;DHT22;8977;50.902;4.314;2023-04-24T11:40:02;13.90;99.90
17715;DHT22;8977;50.902;4.314;2023-04-24T11:42:34;13.90;99.90
17715;DHT22;8977;50.902;4.314;2023-04-24T11:45:01;14.00;99.90
17715;DHT22;8977;50.902;4.314;2023-04-24T11:47:29;14.00;99.90
17715;DHT22;8977;50.902;4.314;2023-04-24T11:49:58;14.10;99.90
17715;DHT22;8977;50.902;4.314;2023-04-24T11:52:27;14.00;99.90
17715;DHT22;8977;50.902;4.314;2023-04-24T11:54:54;14.00;99.90
17715;DHT22;8977;50.902;4.314;2023-04-24T11:57:22;14.10;99.90
17715;DHT22;8977;50.902;4.314;2023-04-24T11:59:49;14.00;99.90
17715;DHT22;8977;50.902;4.314;2023-04-24T12:02:22;14.00;99.90
17715;DHT22;8977;50.902;4.314;2023-04-24T12:04:50;14.10;99.90
17715;DHT22;8977;50.902;4.314;2023-04-24T12:07:17;14.20;99.90
17715;DHT22;8977;50.902;4.314;2023-04-24T12:09:47;14.10;99.90
17715;DHT22;8977;50.902;4.314;2023-04-24T12:12:16;14.00;99.90
17715;DHT22;8977;50.902;4.314;2023-04-24T12:14:48;14.10;99.90
17715;DHT22;8977;50.902;4.314;2023-04-24T12:17:15;14.10;99.90
17715;DHT22;8977;50.902;4.314;2023-04-24T12:19:46;14.00;99.90
17715;DHT22;8977;50.902;4.314;2023-04-24T12:22:14;14.10;99.90
17715;DHT22;8977;50.902;4.314;2023-04-24T12:24:59;14.20;99.90
17715;DHT22;8977;50.902;4.314;2023-04-24T12:27:30;14.20;99.90
17715;DHT22;8977;50.902;4.314;2023-04-24T12:29:58;14.10;99.90
17715;DHT22;8977;50.902;4.314;2023-04-24T12:32:26;14.10;99.90
17715;DHT22;8977;50.902;4.314;2023-04-24T12:34:54;14.20;99.90
17715;DHT22;8977;50.902;4.314;2023-04-24T12:37:22;14.30;99.90
17715;DHT22;8977;50.902;4.314;2023-04-24T12:40:01;14.40;99.90
17715;DHT22;8977;50.902;4.314;2023-04-24T12:42:30;14.50;99.90
17715;DHT22;8977;50.902;4.314;2023-04-24T12:44:57;14.40;99.90
17715;DHT22;8977;50.902;4.314;2023-04-24T12:47:26;14.40;99.90
17715;DHT22;8977;50.902;4.314;2023-04-24T12:49:53;14.50;99.90
17715;DHT22;8977;50.902;4.314;2023-04-24T12:52:21;14.60;99.90
17715;DHT22;8977;50.902;4.314;2023-04-24T12:54:49;14.70;99.90
17715;DHT22;8977;50.902;4.314;2023-04-24T12:57:18;14.70;99.90
17715;DHT22;8977;50.902;4.314;2023-04-24T12:59:45;14.90;99.90
17715;DHT22;8977;50.902;4.314;2023-04-24T13:02:12;15.00;99.90
17715;DHT22;8977;50.902;4.314;2023-04-24T13:04:39;15.10;99.90
17715;DHT22;8977;50.902;4.314;2023-04-24T13:07:06;15.20;99.90
17715;DHT22;8977;50.902;4.314;2023-04-24T13:09:34;15.30;99.90
17715;DHT22;8977;50.902;4.314;2023-04-24T13:12:02;15.40;99.90
17715;DHT22;8977;50.902;4.314;2023-04-24T13:14:30;15.50;99.90
17715;DHT22;8977;50.902;4.314;2023-04-24T13:16:57;15.60;99.90
17715;DHT22;8977;50.902;4.314;2023-04-24T13:19:24;15.60;99.90
17715;DHT22;8977;50.902;4.314;2023-04-24T13:21:52;15.60;99.90
17715;DHT22;8977;50.902;4.314;2023-04-24T13:24:19;15.50;99.90
17715;DHT22;8977;50.902;4.314;2023-04-24T13:26:46;15.50;99.90
17715;DHT22;8977;50.902;4.314;2023-04-24T13:29:13;15.60;99.90
17715;DHT22;8977;50.902;4.314;2023-04-24T13:31:41;15.70;99.90
17715;DHT22;8977;50.902;4.314;2023-04-24T13:34:08;15.80;99.90
17715;DHT22;8977;50.902;4.314;2023-04-24T13:36:35;15.80;99.90
17715;DHT22;8977;50.902;4.314;2023-04-24T13:39:02;15.80;99.90
17715;DHT22;8977;50.902;4.314;2023-04-24T13:41:30;15.90;99.90
17715;DHT22;8977;50.902;4.314;2023-04-24T13:43:56;15.90;99.90
17715;DHT22;8977;50.902;4.314;2023-04-24T13:46:23;15.70;99.90
17715;DHT22;8977;50.902;4.314;2023-04-24T13:48:52;15.60;99.90
17715;DHT22;8977;50.902;4.314;2023-04-24T13:51:19;15.40;99.90
17715;DHT22;8977;50.902;4.314;2023-04-24T13:53:46;15.40;99.90
17715;DHT22;8977;50.902;4.314;2023-04-24T13:56:12;15.30;99.90
17715;DHT22;8977;50.902;4.314;2023-04-24T13:58:39;15.30;99.90
17715;DHT22;8977;50.902;4.314;2023-04-24T14:01:07;15.30;99.90
17715;DHT22;8977;50.902;4.314;2023-04-24T14:03:33;15.20;99.90
17715;DHT22;8977;50.902;4.314;2023-04-24T14:06:02;15.20;99.90
17715;DHT22;8977;50.902;4.314;2023-04-24T14:08:29;15.10;99.90
17715;DHT22;8977;50.902;4.314;2023-04-24T14:10:56;15.10;99.90
17715;DHT22;8977;50.902;4.314;2023-04-24T14:13:23;15.10;99.90
17715;DHT22;8977;50.902;4.314;2023-04-24T14:15:51;15.10;99.90
17715;DHT22;8977;50.902;4.314;2023-04-24T14:18:18;15.10;99.90
17715;DHT22;8977;50.902;4.314;2023-04-24T14:20:45;15.10;99.90
17715;DHT22;8977;50.902;4.314;2023-04-24T14:23:13;15.00;99.90
17715;DHT22;8977;50.902;4.314;2023-04-24T14:25:40;15.00;99.90
17715;DHT22;8977;50.902;4.314;2023-04-24T14:28:07;15.00;99.90
17715;DHT22;8977;50.902;4.314;2023-04-24T14:30:34;15.00;99.90
17715;DHT22;8977;50.902;4.314;2023-04-24T14:33:03;15.00;99.90
17715;DHT22;8977;50.902;4.314;2023-04-24T14:35:30;15.00;99.90
17715;DHT22;8977;50.902;4.314;2023-04-24T14:37:59;15.00;99.90
17715;DHT22;8977;50.902;4.314;2023-04-24T14:40:28;14.90;99.90
17715;DHT22;8977;50.902;4.314;2023-04-24T14:42:55;14.90;99.90
17715;DHT22;8977;50.902;4.314;2023-04-24T14:45:23;14.90;99.90
17715;DHT22;8977;50.902;4.314;2023-04-24T14:47:50;15.00;99.90
17715;DHT22;8977;50.902;4.314;2023-04-24T14:50:17;14.90;99.90
17715;DHT22;8977;50.902;4.314;2023-04-24T14:52:44;15.00;99.90
17715;DHT22;8977;50.902;4.314;2023-04-24T14:55:13;15.00;99.90
17715;DHT22;8977;50.902;4.314;2023-04-24T14:57:41;14.90;99.90
17715;DHT22;8977;50.902;4.314;2023-04-24T15:00:09;15.00;99.90
17715;DHT22;8977;50.902;4.314;2023-04-24T15:02:36;15.00;99.90
17715;DHT22;8977;50.902;4.314;2023-04-24T15:05:07;15.00;99.90
17715;DHT22;8977;50.902;4.314;2023-04-24T15:07:34;15.00;99.90
17715;DHT22;8977;50.902;4.314;2023-04-24T15:10:02;15.00;99.90
17715;DHT22;8977;50.902;4.314;2023-04-24T15:12:29;15.00;99.90
17715;DHT22;8977;50.902;4.314;2023-04-24T15:14:58;15.00;99.90
17715;DHT22;8977;50.902;4.314;2023-04-24T15:17:24;15.00;99.90
17715;DHT22;8977;50.902;4.314;2023-04-24T15:19:52;14.90;99.90
17715;DHT22;8977;50.902;4.314;2023-04-24T15:22:19;14.80;99.90
17715;DHT22;8977;50.902;4.314;2023-04-24T15:24:46;14.70;99.90
17715;DHT22;8977;50.902;4.314;2023-04-24T15:27:13;14.80;99.90
17715;DHT22;8977;50.902;4.314;2023-04-24T15:29:40;14.90;99.90
17715;DHT22;8977;50.902;4.314;2023-04-24T15:32:08;15.00;99.90
17715;DHT22;8977;50.902;4.314;2023-04-24T15:34:35;15.00;99.90
17715;DHT22;8977;50.902;4.314;2023-04-24T15:37:02;15.00;99.90
17715;DHT22;8977;50.902;4.314;2023-04-24T15:39:29;14.90;99.90
17715;DHT22;8977;50.902;4.314;2023-04-24T15:41:56;14.80;99.90
17715;DHT22;8977;50.902;4.314;2023-04-24T15:44:23;14.70;99.90
17715;DHT22;8977;50.902;4.314;2023-04-24T15:46:50;14.70;99.90
17715;DHT22;8977;50.902;4.314;2023-04-24T15:49:19;14.60;99.90